Time;durP1;ratioP1;P1;durP2;ratioP2;P2;SDS_P1;SDS_P2;PMS_P1;PMS_P2;Temp;Humidity;BMP_temperature;BMP_pressure;BME280_temperature;BME280_humidity;BME280_pressure;Samples;Min_cycle;Max_cycle;Signal;HPM_P1;HPM_P2
2024/01/24 00:02:06;;;;;;;2.63;0.70;;;15.60;75.50;;;;;;5154045;27;45168;-52
2024/01/24 00:04:33;;;;;;;3.55;0.90;;;15.60;75.40;;;;;;5150263;27;45421;-52
2024/01/24 00:07:01;;;;;;;2.70;0.75;;;15.60;75.60;;;;;;5148894;27;46203;-52
2024/01/24 00:09:30;;;;;;;2.72;0.57;;;15.60;76.10;;;;;;5148861;27;45233;-52
2024/01/24 00:11:57;;;;;;;2.20;0.80;;;15.60;75.70;;;;;;5154423;27;45475;-52
2024/01/24 00:14:24;;;;;;;2.45;0.93;;;15.60;75.60;;;;;;5152573;27;45343;-52
2024/01/24 00:16:50;;;;;;;1.63;0.68;;;15.60;75.60;;;;;;5149121;27;45291;-52
2024/01/24 00:19:17;;;;;;;1.80;0.73;;;15.70;75.20;;;;;;5150519;27;45184;-52
2024/01/24 00:21:44;;;;;;;1.95;0.60;;;15.70;75.40;;;;;;5151648;27;45164;-52
2024/01/24 00:24:12;;;;;;;1.67;0.88;;;15.70;75.80;;;;;;5147736;27;45315;-52
2024/01/24 00:26:39;;;;;;;2.47;1.08;;;15.70;75.60;;;;;;5149904;27;47350;-52
2024/01/24 00:29:06;;;;;;;1.45;0.70;;;15.70;75.30;;;;;;5153080;27;45221;-52
2024/01/24 00:31:33;;;;;;;1.60;0.50;;;15.70;76.00;;;;;;5151141;27;45133;-52
2024/01/24 00:34:00;;;;;;;1.17;0.50;;;15.80;75.90;;;;;;5154739;27;45590;-52
2024/01/24 00:36:27;;;;;;;3.40;0.57;;;15.70;76.10;;;;;;5149311;27;44973;-52
2024/01/24 00:38:54;;;;;;;1.27;0.68;;;15.70;76.10;;;;;;5150485;27;45179;-52
2024/01/24 00:41:22;;;;;;;2.10;0.77;;;15.70;76.40;;;;;;5151393;27;45929;-52
2024/01/24 00:43:48;;;;;;;2.17;0.60;;;15.70;76.70;;;;;;5153316;27;45316;-52
2024/01/24 00:46:15;;;;;;;5.68;0.80;;;15.70;76.80;;;;;;5155626;27;46213;-52
2024/01/24 00:48:42;;;;;;;2.47;0.88;;;15.70;76.80;;;;;;5152858;27;45286;-52
2024/01/24 00:51:09;;;;;;;2.47;0.80;;;15.70;76.70;;;;;;5157065;27;45270;-52
2024/01/24 00:53:38;;;;;;;1.17;0.50;;;15.70;76.80;;;;;;5154706;27;45109;-52
2024/01/24 00:56:06;;;;;;;1.60;0.60;;;15.70;76.80;;;;;;5156884;27;45426;-52
2024/01/24 00:58:34;;;;;;;1.73;0.60;;;15.70;77.00;;;;;;5152909;27;45161;-52
2024/01/24 01:01:00;;;;;;;2.40;0.60;;;15.70;76.90;;;;;;5155444;27;45156;-52
2024/01/24 01:03:27;;;;;;;1.67;0.50;;;15.70;77.00;;;;;;5152798;27;45229;-52
2024/01/24 01:05:54;;;;;;;2.13;0.77;;;15.70;76.60;;;;;;5155027;27;46692;-52
2024/01/24 01:08:21;;;;;;;1.50;0.60;;;15.70;76.90;;;;;;5154004;27;45173;-52
2024/01/24 01:10:47;;;;;;;1.60;0.50;;;15.70;76.30;;;;;;5154171;27;45186;-52
2024/01/24 01:13:14;;;;;;;1.77;0.70;;;15.80;76.50;;;;;;5156166;27;45177;-52
2024/01/24 01:15:42;;;;;;;1.80;0.70;;;15.70;76.50;;;;;;5150224;27;45432;-52
2024/01/24 01:18:10;;;;;;;1.25;0.60;;;15.70;76.60;;;;;;5153237;27;45361;-52
2024/01/24 01:20:37;;;;;;;2.92;0.90;;;15.80;76.80;;;;;;5154490;27;45192;-52
2024/01/24 01:23:04;;;;;;;1.90;0.63;;;15.80;76.30;;;;;;5157069;27;45343;-52
2024/01/24 01:25:30;;;;;;;3.17;0.68;;;15.80;76.60;;;;;;5156115;27;47462;-52
2024/01/24 01:27:57;;;;;;;2.10;0.70;;;15.80;76.70;;;;;;5151376;27;45282;-52
2024/01/24 01:30:24;;;;;;;1.60;0.63;;;15.80;77.00;;;;;;5152242;27;45640;-52
2024/01/24 01:32:52;;;;;;;2.10;0.70;;;15.80;77.10;;;;;;5154075;27;45315;-52
2024/01/24 01:35:19;;;;;;;1.00;0.52;;;15.70;77.30;;;;;;5156043;27;45176;-52
2024/01/24 01:37:46;;;;;;;0.60;0.43;;;15.70;77.10;;;;;;5152605;27;45625;-52
2024/01/24 01:40:12;;;;;;;0.70;0.40;;;15.70;77.20;;;;;;5150706;27;45141;-52
2024/01/24 01:42:44;;;;;;;3.97;0.85;;;15.70;77.10;;;;;;5157146;27;45100;-52
2024/01/24 01:45:10;;;;;;;1.75;0.50;;;15.70;77.00;;;;;;5156294;27;45223;-52
2024/01/24 01:47:38;;;;;;;0.88;0.65;;;15.70;77.30;;;;;;5156159;27;46104;-52
2024/01/24 01:50:09;;;;;;;2.78;0.88;;;15.70;77.10;;;;;;5153611;27;44657;-52
2024/01/24 01:52:36;;;;;;;1.55;0.50;;;15.70;77.30;;;;;;5153223;27;45246;-52
2024/01/24 01:55:05;;;;;;;1.80;0.55;;;15.70;77.10;;;;;;5149102;27;45422;-52
2024/01/24 01:57:32;;;;;;;0.60;0.38;;;15.70;77.10;;;;;;5153787;27;45283;-52
2024/01/24 02:00:00;;;;;;;1.05;0.50;;;15.70;77.00;;;;;;5158790;27;45184;-52
2024/01/24 02:02:27;;;;;;;0.77;0.50;;;15.70;76.80;;;;;;5154439;27;45101;-52
2024/01/24 02:04:54;;;;;;;2.10;0.40;;;15.80;76.70;;;;;;5151863;27;45212;-52
2024/01/24 02:07:22;;;;;;;1.25;0.40;;;15.80;76.60;;;;;;5152299;27;45162;-52
2024/01/24 02:09:49;;;;;;;1.67;0.55;;;15.80;76.60;;;;;;5150472;27;45221;-52
2024/01/24 02:12:16;;;;;;;1.10;0.50;;;15.80;76.70;;;;;;5151909;27;45258;-52
2024/01/24 02:14:42;;;;;;;1.38;0.50;;;15.80;77.00;;;;;;5151260;27;47827;-52
2024/01/24 02:17:09;;;;;;;2.67;0.60;;;15.80;76.80;;;;;;5158341;27;45109;-52
2024/01/24 02:19:36;;;;;;;2.05;0.47;;;15.80;77.20;;;;;;5152891;27;45168;-52
2024/01/24 02:22:02;;;;;;;0.57;0.40;;;15.80;77.10;;;;;;5152666;27;45453;-52
2024/01/24 02:24:30;;;;;;;0.82;0.40;;;15.80;77.20;;;;;;5149641;27;45304;-52
2024/01/24 02:26:57;;;;;;;1.08;0.50;;;15.70;77.60;;;;;;5151464;27;45237;-52
2024/01/24 02:29:24;;;;;;;1.17;0.40;;;15.70;77.70;;;;;;5153202;27;45159;-52
2024/01/24 02:31:51;;;;;;;0.32;0.32;;;15.70;77.50;;;;;;5152382;27;45295;-52
2024/01/24 02:34:17;;;;;;;1.17;0.60;;;15.70;77.80;;;;;;5155339;27;45209;-52
2024/01/24 02:36:44;;;;;;;1.20;0.50;;;15.70;77.70;;;;;;5151858;27;45221;-52
2024/01/24 02:39:11;;;;;;;1.20;0.50;;;15.70;77.80;;;;;;5152021;27;45445;-52
2024/01/24 02:41:41;;;;;;;1.35;0.40;;;15.70;77.80;;;;;;5153117;27;45159;-52
2024/01/24 02:44:08;;;;;;;0.47;0.30;;;15.70;77.80;;;;;;5156415;27;48431;-52
2024/01/24 02:46:35;;;;;;;0.30;0.30;;;15.80;78.00;;;;;;5152832;27;45191;-52
2024/01/24 02:49:01;;;;;;;0.82;0.40;;;15.70;77.50;;;;;;5153057;27;45109;-52
2024/01/24 02:51:28;;;;;;;0.80;0.30;;;15.80;77.60;;;;;;5158510;27;45237;-52
2024/01/24 02:53:55;;;;;;;1.77;0.38;;;15.80;77.40;;;;;;5148450;27;45165;-52
2024/01/24 02:56:22;;;;;;;0.77;0.30;;;15.80;77.30;;;;;;5149232;27;45430;-52
2024/01/24 02:58:50;;;;;;;0.95;0.30;;;15.80;77.60;;;;;;5152175;27;45286;-52
2024/01/24 03:01:17;;;;;;;1.13;0.35;;;15.80;77.30;;;;;;5154845;27;45189;-52
2024/01/24 03:03:44;;;;;;;0.60;0.30;;;15.80;77.70;;;;;;5150818;27;46218;-52
2024/01/24 03:06:11;;;;;;;0.30;0.20;;;15.90;77.70;;;;;;5149039;27;45173;-52
2024/01/24 03:08:48;;;;;;;0.77;0.20;;;15.90;77.30;;;;;;5155372;27;45212;-52
2024/01/24 03:11:15;;;;;;;0.82;0.40;;;15.90;78.60;;;;;;5153921;27;45399;-52
2024/01/24 03:13:42;;;;;;;0.55;0.25;;;15.80;77.70;;;;;;5153619;27;45227;-52
2024/01/24 03:16:10;;;;;;;0.75;0.32;;;15.80;78.20;;;;;;5152146;27;45365;-52
2024/01/24 03:18:37;;;;;;;0.43;0.32;;;15.80;78.10;;;;;;5153988;27;45201;-52
2024/01/24 03:21:05;;;;;;;0.30;0.30;;;15.80;78.00;;;;;;5155742;27;45298;-52
2024/01/24 03:23:32;;;;;;;1.20;0.40;;;15.80;78.40;;;;;;5148084;27;46718;-52
2024/01/24 03:25:59;;;;;;;0.95;0.32;;;15.70;78.60;;;;;;5152841;27;45248;-52
2024/01/24 03:28:25;;;;;;;0.60;0.20;;;15.80;78.50;;;;;;5152511;27;45318;-52
2024/01/24 03:30:53;;;;;;;0.35;0.10;;;15.80;78.80;;;;;;5152719;27;44857;-52
2024/01/24 03:33:21;;;;;;;0.90;0.28;;;15.80;78.90;;;;;;5150600;27;46426;-52
2024/01/24 03:35:48;;;;;;;0.38;0.35;;;15.80;78.90;;;;;;5150844;27;45198;-52
2024/01/24 03:38:15;;;;;;;0.40;0.20;;;15.80;79.30;;;;;;5149066;27;45169;-52
2024/01/24 03:40:42;;;;;;;0.28;0.20;;;15.80;78.90;;;;;;5149586;27;45854;-52
2024/01/24 03:43:10;;;;;;;0.43;0.20;;;15.80;78.90;;;;;;5153091;27;45418;-52
2024/01/24 03:45:37;;;;;;;0.10;0.10;;;15.80;79.10;;;;;;5151149;27;45219;-52
2024/01/24 03:48:04;;;;;;;0.17;0.17;;;15.80;78.80;;;;;;5152670;27;45275;-52
2024/01/24 03:50:33;;;;;;;0.20;0.20;;;15.80;79.30;;;;;;5150285;27;45283;-52
2024/01/24 03:53:01;;;;;;;0.75;0.22;;;15.90;79.50;;;;;;5150691;27;45349;-52
2024/01/24 03:55:28;;;;;;;0.57;0.30;;;15.80;79.10;;;;;;5151372;27;44656;-52
2024/01/24 03:57:55;;;;;;;0.40;0.20;;;15.90;80.20;;;;;;5151874;27;45304;-52
2024/01/24 04:00:22;;;;;;;0.20;0.20;;;15.90;79.30;;;;;;5152142;27;45425;-52
2024/01/24 04:02:48;;;;;;;0.65;0.30;;;15.90;80.00;;;;;;5150491;27;45176;-52
2024/01/24 04:05:16;;;;;;;0.22;0.13;;;15.80;80.30;;;;;;5153736;27;45298;-52
2024/01/24 04:07:44;;;;;;;0.40;0.30;;;15.80;80.30;;;;;;5151469;27;45341;-52
2024/01/24 04:10:11;;;;;;;0.30;0.30;;;15.80;81.00;;;;;;5156429;27;45247;-52
2024/01/24 04:12:38;;;;;;;0.63;0.13;;;15.80;80.70;;;;;;5150759;27;46042;-52
2024/01/24 04:15:06;;;;;;;0.30;0.20;;;15.80;81.10;;;;;;5152178;27;45246;-52
2024/01/24 04:17:33;;;;;;;0.93;0.20;;;15.80;80.90;;;;;;5150074;27;45248;-52
2024/01/24 04:19:59;;;;;;;0.20;0.10;;;15.80;81.50;;;;;;5150229;27;45096;-52
2024/01/24 04:22:26;;;;;;;0.50;0.13;;;15.80;81.20;;;;;;5148355;27;45257;-52
2024/01/24 04:24:54;;;;;;;0.32;0.20;;;15.70;81.80;;;;;;5150861;27;45216;-52
2024/01/24 04:27:22;;;;;;;0.20;0.10;;;15.70;81.30;;;;;;5150026;27;45329;-52
2024/01/24 04:29:49;;;;;;;0.20;0.10;;;15.70;82.40;;;;;;5147605;27;45176;-52
2024/01/24 04:32:16;;;;;;;0.25;0.10;;;15.70;81.50;;;;;;5152958;27;46535;-52
2024/01/24 04:34:42;;;;;;;0.80;0.20;;;15.70;81.20;;;;;;5152117;27;45292;-52
2024/01/24 04:37:09;;;;;;;0.50;0.10;;;15.70;81.50;;;;;;5151253;27;44654;-52
2024/01/24 04:39:36;;;;;;;0.22;0.13;;;15.70;80.30;;;;;;5145664;27;45231;-52
2024/01/24 04:42:04;;;;;;;0.55;0.17;;;15.80;80.30;;;;;;5154233;27;46633;-52
2024/01/24 04:44:31;;;;;;;0.20;0.10;;;15.80;80.30;;;;;;5149519;27;45251;-52
2024/01/24 04:46:59;;;;;;;0.10;0.10;;;15.80;80.20;;;;;;5152986;27;45158;-52
2024/01/24 04:49:26;;;;;;;0.45;0.10;;;15.90;80.30;;;;;;5152771;27;45307;-52
2024/01/24 04:51:52;;;;;;;0.10;0.10;;;15.90;79.80;;;;;;5149470;27;45562;-52
2024/01/24 04:54:19;;;;;;;0.30;0.10;;;15.90;80.10;;;;;;5150567;27;45105;-52
2024/01/24 04:56:47;;;;;;;0.40;0.10;;;15.80;80.50;;;;;;5149484;27;45233;-52
2024/01/24 04:59:16;;;;;;;0.10;0.10;;;15.80;80.70;;;;;;5149948;27;45371;-52
2024/01/24 05:01:43;;;;;;;0.20;0.10;;;15.80;80.80;;;;;;5151427;27;46536;-52
2024/01/24 05:04:11;;;;;;;0.20;0.10;;;15.80;80.90;;;;;;5149916;27;45313;-52
2024/01/24 05:06:38;;;;;;;0.08;0.08;;;15.80;81.20;;;;;;5152238;27;45311;-52
2024/01/24 05:09:04;;;;;;;0.28;0.20;;;15.70;80.60;;;;;;5151764;27;45186;-52
2024/01/24 05:11:31;;;;;;;0.00;0.00;;;15.80;81.00;;;;;;5155266;27;48754;-52
2024/01/24 05:14:00;;;;;;;0.13;0.05;;;15.70;80.90;;;;;;5150165;27;45399;-52
2024/01/24 05:16:29;;;;;;;0.82;0.10;;;15.70;80.70;;;;;;5149494;27;45192;-52
2024/01/24 05:18:56;;;;;;;0.25;0.10;;;15.70;81.20;;;;;;5151231;27;45375;-52
2024/01/24 05:21:23;;;;;;;0.45;0.30;;;15.60;80.80;;;;;;5150532;27;46581;-52
2024/01/24 05:23:51;;;;;;;1.95;0.30;;;15.70;80.30;;;;;;5151429;27;45231;-52
2024/01/24 05:26:17;;;;;;;1.45;0.35;;;15.70;79.20;;;;;;5150312;27;44637;-52
2024/01/24 05:28:44;;;;;;;1.10;0.30;;;15.70;79.10;;;;;;5150595;27;45321;-52
2024/01/24 05:31:11;;;;;;;0.43;0.30;;;15.70;78.40;;;;;;5150668;27;45420;-52
2024/01/24 05:33:39;;;;;;;1.30;0.40;;;15.70;78.50;;;;;;5153687;27;45142;-52
2024/01/24 05:36:06;;;;;;;2.90;0.40;;;15.70;78.20;;;;;;5156469;27;45248;-52
2024/01/24 05:38:34;;;;;;;1.58;0.60;;;15.70;78.20;;;;;;5150097;27;45234;-52
2024/01/24 05:41:00;;;;;;;1.70;0.52;;;15.70;77.90;;;;;;5152943;27;47603;-52
2024/01/24 05:43:27;;;;;;;1.75;0.40;;;15.70;77.30;;;;;;5151990;27;45294;-52
2024/01/24 05:45:54;;;;;;;1.70;0.43;;;15.70;77.10;;;;;;5152424;27;45231;-52
2024/01/24 05:48:21;;;;;;;3.10;0.65;;;15.70;77.30;;;;;;5153869;27;45417;-52
2024/01/24 05:50:49;;;;;;;3.33;0.43;;;15.70;77.50;;;;;;5154168;27;46547;-52
2024/01/24 05:53:16;;;;;;;3.28;0.73;;;15.70;77.90;;;;;;5156052;27;45260;-52
2024/01/24 05:55:42;;;;;;;2.75;0.50;;;15.60;78.60;;;;;;5151409;27;45258;-52
2024/01/24 05:58:08;;;;;;;3.17;0.70;;;15.60;79.00;;;;;;5157145;27;45369;-52
2024/01/24 06:00:36;;;;;;;2.83;0.52;;;15.50;79.10;;;;;;5153907;27;47462;-52
2024/01/24 06:03:03;;;;;;;2.63;0.60;;;15.50;78.70;;;;;;5151491;27;45263;-52
2024/01/24 06:05:29;;;;;;;2.38;0.60;;;15.50;77.70;;;;;;5153534;27;45216;-52
2024/01/24 06:07:58;;;;;;;2.83;0.90;;;15.60;77.00;;;;;;5153857;27;45437;-52
2024/01/24 06:10:24;;;;;;;2.88;0.70;;;15.60;76.50;;;;;;5152122;27;45266;-52
2024/01/24 06:12:51;;;;;;;2.67;0.82;;;15.60;76.30;;;;;;5152529;27;45117;-52
2024/01/24 06:15:19;;;;;;;3.00;0.63;;;15.60;76.30;;;;;;5155864;27;45337;-52
2024/01/24 06:17:45;;;;;;;4.38;1.00;;;15.60;76.20;;;;;;5152038;27;45422;-53
2024/01/24 06:20:13;;;;;;;2.67;0.90;;;15.60;76.00;;;;;;5156420;27;46224;-52
2024/01/24 06:22:41;;;;;;;3.63;1.00;;;15.60;75.70;;;;;;5152712;27;45145;-52
2024/01/24 06:25:09;;;;;;;3.63;1.02;;;15.60;75.40;;;;;;5153298;27;45324;-52
2024/01/24 06:27:36;;;;;;;4.22;0.90;;;15.60;75.00;;;;;;5152549;27;45156;-52
2024/01/24 06:30:04;;;;;;;4.82;1.23;;;15.60;74.40;;;;;;5154331;27;45408;-53
2024/01/24 06:32:31;;;;;;;6.03;1.40;;;15.60;74.40;;;;;;5154273;27;45253;-52
2024/01/24 06:34:58;;;;;;;6.40;1.33;;;15.60;74.40;;;;;;5156114;27;44634;-52
2024/01/24 06:37:24;;;;;;;3.72;1.00;;;15.60;74.40;;;;;;5151671;27;45202;-52
2024/01/24 06:39:51;;;;;;;5.60;1.08;;;15.60;74.40;;;;;;5150857;27;46065;-53
2024/01/24 06:42:20;;;;;;;3.92;1.20;;;15.70;74.50;;;;;;5152619;27;44652;-52
2024/01/24 06:44:47;;;;;;;5.65;1.30;;;15.70;74.50;;;;;;5151455;27;45395;-52
2024/01/24 06:47:14;;;;;;;7.68;1.60;;;15.70;74.50;;;;;;5157787;27;45161;-52
2024/01/24 06:49:40;;;;;;;8.63;1.52;;;15.70;74.50;;;;;;5150114;27;45197;-52
2024/01/24 06:52:07;;;;;;;6.32;1.30;;;15.70;74.50;;;;;;5152283;27;45259;-52
2024/01/24 06:54:35;;;;;;;8.88;1.98;;;15.70;74.50;;;;;;5153917;27;45145;-52
2024/01/24 06:57:03;;;;;;;5.57;1.77;;;15.70;74.50;;;;;;5150745;27;45183;-52
2024/01/24 06:59:31;;;;;;;3.92;1.40;;;15.70;74.50;;;;;;5153124;27;45538;-52
2024/01/24 07:01:58;;;;;;;4.85;1.20;;;15.70;74.50;;;;;;5150998;27;45258;-52
2024/01/24 07:04:26;;;;;;;9.60;1.67;;;15.70;74.50;;;;;;5153496;27;44760;-52
2024/01/24 07:06:53;;;;;;;8.35;1.77;;;15.70;74.50;;;;;;5150002;27;45085;-52
2024/01/24 07:09:19;;;;;;;5.50;1.38;;;15.70;74.50;;;;;;5152539;27;45317;-52
2024/01/24 07:11:46;;;;;;;9.23;2.05;;;15.80;74.30;;;;;;5150489;27;45194;-52
2024/01/24 07:14:14;;;;;;;10.40;2.05;;;15.80;74.10;;;;;;5151815;27;45162;-52
2024/01/24 07:16:43;;;;;;;6.13;1.55;;;15.80;73.90;;;;;;5149583;27;45125;-52
2024/01/24 07:19:10;;;;;;;5.70;1.45;;;15.80;74.00;;;;;;5151788;27;45266;-52
2024/01/24 07:21:37;;;;;;;7.78;1.80;;;15.80;73.70;;;;;;5152823;27;45187;-52
2024/01/24 07:24:04;;;;;;;6.38;1.63;;;15.80;73.80;;;;;;5148473;27;45181;-52
2024/01/24 07:26:31;;;;;;;6.25;2.00;;;15.80;73.70;;;;;;5150742;27;44693;-52
2024/01/24 07:28:59;;;;;;;5.65;1.80;;;15.80;73.60;;;;;;5148867;27;46263;-52
2024/01/24 07:31:26;;;;;;;9.13;2.38;;;15.80;73.50;;;;;;5151698;27;45172;-52
2024/01/24 07:33:54;;;;;;;4.38;1.63;;;15.80;73.60;;;;;;5152166;27;45144;-52
2024/01/24 07:36:21;;;;;;;7.95;1.92;;;15.80;73.80;;;;;;5152374;27;45535;-52
2024/01/24 07:38:48;;;;;;;7.88;2.13;;;15.80;73.70;;;;;;5150560;27;47824;-52
2024/01/24 07:41:15;;;;;;;6.93;1.60;;;15.80;73.60;;;;;;5150904;27;45283;-52
2024/01/24 07:43:42;;;;;;;9.13;1.83;;;15.80;73.60;;;;;;5152809;27;45122;-52
2024/01/24 07:46:09;;;;;;;7.05;1.80;;;15.80;73.60;;;;;;5154368;27;45292;-52
2024/01/24 07:48:36;;;;;;;7.60;2.15;;;15.80;73.60;;;;;;5149311;27;46938;-52
2024/01/24 07:51:05;;;;;;;7.43;1.88;;;15.80;73.60;;;;;;5150971;27;45222;-52
2024/01/24 07:53:32;;;;;;;8.88;2.15;;;15.80;73.50;;;;;;5152836;27;45193;-52
2024/01/24 07:55:59;;;;;;;8.63;2.17;;;15.80;73.60;;;;;;5152737;27;44757;-52
2024/01/24 07:58:27;;;;;;;8.82;2.50;;;15.80;73.50;;;;;;5150166;27;46695;-52
2024/01/24 08:00:55;;;;;;;10.52;2.38;;;15.80;73.50;;;;;;5150672;27;45207;-52
2024/01/24 08:03:21;;;;;;;8.32;2.45;;;15.80;73.40;;;;;;5153777;27;45164;-52
2024/01/24 08:05:48;;;;;;;9.65;2.08;;;15.80;73.50;;;;;;5150634;27;45463;-52
2024/01/24 08:08:16;;;;;;;6.20;2.00;;;15.80;73.30;;;;;;5150561;27;46106;-52
2024/01/24 08:10:43;;;;;;;9.48;2.10;;;15.80;73.10;;;;;;5150396;27;45629;-52
2024/01/24 08:13:10;;;;;;;9.25;2.55;;;15.90;73.20;;;;;;5155006;27;45512;-52
2024/01/24 08:15:37;;;;;;;10.07;2.97;;;15.90;73.30;;;;;;5152696;27;45185;-52
2024/01/24 08:18:03;;;;;;;8.05;2.28;;;15.90;74.40;;;;;;5152987;27;46407;-52
2024/01/24 08:20:30;;;;;;;9.07;2.20;;;15.90;73.50;;;;;;5149093;27;45185;-52
2024/01/24 08:22:57;;;;;;;10.60;2.15;;;15.90;73.30;;;;;;5154809;27;45279;-52
2024/01/24 08:25:26;;;;;;;9.57;2.45;;;15.90;73.10;;;;;;5148906;27;45254;-52
2024/01/24 08:27:53;;;;;;;9.88;2.75;;;15.90;72.90;;;;;;5148820;27;45239;-52
2024/01/24 08:30:20;;;;;;;6.68;2.15;;;15.80;72.80;;;;;;5154366;27;45208;-52
2024/01/24 08:32:47;;;;;;;9.52;2.25;;;15.80;72.60;;;;;;5148781;27;45191;-52
2024/01/24 08:35:15;;;;;;;9.88;2.30;;;15.80;72.30;;;;;;5148661;27;45139;-52
2024/01/24 08:37:42;;;;;;;12.02;2.33;;;15.70;72.10;;;;;;5150287;27;46270;-52
2024/01/24 08:40:10;;;;;;;12.77;2.55;;;15.70;71.80;;;;;;5150539;27;45347;-52
2024/01/24 08:42:40;;;;;;;9.32;2.20;;;15.80;71.50;;;;;;5151677;27;44955;-52
2024/01/24 08:45:09;;;;;;;11.50;2.53;;;15.80;71.20;;;;;;5151662;27;45394;-52
2024/01/24 08:47:36;;;;;;;11.07;2.72;;;15.70;70.70;;;;;;5148372;27;45365;-52
2024/01/24 08:50:04;;;;;;;11.63;2.70;;;15.80;70.90;;;;;;5149587;27;46329;-52
2024/01/24 08:52:31;;;;;;;9.98;2.45;;;15.80;70.60;;;;;;5150542;27;45212;-52
2024/01/24 08:54:58;;;;;;;9.07;2.78;;;15.80;70.40;;;;;;5150135;27;45279;-52
2024/01/24 08:57:25;;;;;;;9.60;2.20;;;15.80;70.40;;;;;;5151059;27;46469;-52
2024/01/24 08:59:54;;;;;;;11.75;2.47;;;15.80;70.10;;;;;;5154672;27;44927;-52
2024/01/24 09:02:21;;;;;;;11.15;2.60;;;15.80;69.90;;;;;;5151559;27;45389;-52
2024/01/24 09:04:50;;;;;;;12.65;2.85;;;15.80;69.60;;;;;;5152313;27;45448;-52
2024/01/24 09:07:19;;;;;;;11.10;2.63;;;15.80;69.70;;;;;;5153337;27;45672;-52
2024/01/24 09:09:47;;;;;;;8.85;2.75;;;15.80;69.60;;;;;;5152687;27;45287;-52
2024/01/24 09:12:14;;;;;;;10.75;3.15;;;15.90;69.40;;;;;;5153388;27;45180;-52
2024/01/24 09:14:40;;;;;;;11.35;3.00;;;15.90;69.40;;;;;;5153207;27;45405;-52
2024/01/24 09:17:08;;;;;;;9.30;2.42;;;15.80;69.60;;;;;;5155233;27;47606;-52
2024/01/24 09:19:35;;;;;;;12.27;2.80;;;15.80;69.10;;;;;;5154974;27;45170;-52
2024/01/24 09:22:02;;;;;;;11.05;2.60;;;15.80;68.80;;;;;;5154455;27;45181;-52
2024/01/24 09:24:29;;;;;;;9.88;2.78;;;15.80;68.90;;;;;;5151690;27;45585;-52
2024/01/24 09:26:56;;;;;;;11.60;2.78;;;15.80;68.80;;;;;;5152820;27;45098;-51
2024/01/24 09:29:23;;;;;;;9.27;2.45;;;15.80;68.80;;;;;;5156439;27;45229;-52
2024/01/24 09:31:49;;;;;;;15.15;3.03;;;15.80;68.90;;;;;;5154816;27;45192;-52
2024/01/24 09:34:18;;;;;;;10.98;2.50;;;15.80;68.80;;;;;;5152765;27;45369;-52
2024/01/24 09:36:45;;;;;;;11.77;2.75;;;15.80;68.80;;;;;;5151792;27;47478;-52
2024/01/24 09:39:12;;;;;;;10.13;2.67;;;15.80;68.50;;;;;;5155039;27;45705;-52
2024/01/24 09:41:42;;;;;;;12.77;2.60;;;15.80;68.80;;;;;;5155405;27;45238;-52
2024/01/24 09:44:11;;;;;;;10.18;2.90;;;15.80;68.80;;;;;;5154260;27;45342;-52
2024/01/24 09:46:40;;;;;;;9.35;2.30;;;15.90;68.60;;;;;;5150507;27;46272;-52
2024/01/24 09:49:07;;;;;;;12.80;2.63;;;15.80;68.70;;;;;;5157139;27;45233;-52
2024/01/24 09:51:35;;;;;;;9.02;2.53;;;15.80;68.40;;;;;;5154597;27;45172;-52
2024/01/24 09:54:05;;;;;;;13.63;2.90;;;15.90;68.40;;;;;;5152159;27;45307;-52
2024/01/24 09:56:35;;;;;;;12.18;2.95;;;15.90;68.20;;;;;;5154830;27;46952;-52
2024/01/24 09:59:02;;;;;;;11.15;2.38;;;15.90;68.20;;;;;;5153047;27;45237;-52
2024/01/24 10:01:31;;;;;;;12.93;3.28;;;15.90;68.10;;;;;;5156032;27;44723;-52
2024/01/24 10:03:59;;;;;;;8.55;2.83;;;15.90;68.30;;;;;;5153229;27;45431;-52
2024/01/24 10:06:26;;;;;;;12.98;2.83;;;15.90;68.00;;;;;;5151414;27;46664;-52
2024/01/24 10:08:54;;;;;;;10.65;3.28;;;15.90;68.00;;;;;;5153674;27;45111;-52
2024/01/24 10:11:21;;;;;;;10.15;2.50;;;15.90;67.80;;;;;;5154380;27;45325;-52
2024/01/24 10:13:48;;;;;;;10.93;2.30;;;15.80;67.80;;;;;;5152885;27;45200;-52
2024/01/24 10:16:15;;;;;;;10.45;2.88;;;15.90;67.60;;;;;;5153637;27;46544;-52
2024/01/24 10:18:45;;;;;;;11.15;2.55;;;15.90;67.70;;;;;;5153440;27;45205;-52
2024/01/24 10:21:13;;;;;;;10.80;2.88;;;15.80;67.70;;;;;;5151363;27;44708;-51
2024/01/24 10:23:41;;;;;;;10.60;3.33;;;15.80;67.60;;;;;;5152039;27;45157;-52
2024/01/24 10:26:10;;;;;;;10.35;2.97;;;15.80;67.70;;;;;;5152136;27;45267;-52
2024/01/24 10:28:37;;;;;;;10.13;2.55;;;15.80;67.70;;;;;;5153262;27;45249;-52
2024/01/24 10:31:06;;;;;;;12.82;2.65;;;15.80;67.70;;;;;;5151176;27;45161;-52
2024/01/24 10:33:33;;;;;;;10.18;2.63;;;15.90;67.70;;;;;;5152235;27;45183;-52
2024/01/24 10:36:00;;;;;;;7.75;2.28;;;15.90;67.60;;;;;;5151784;27;45330;-52
2024/01/24 10:38:32;;;;;;;9.38;2.55;;;15.90;67.70;;;;;;5151780;27;45161;-52
2024/01/24 10:41:00;;;;;;;13.43;3.60;;;15.90;67.70;;;;;;5152393;27;45131;-52
2024/01/24 10:43:29;;;;;;;12.63;2.85;;;15.90;67.60;;;;;;5155112;27;44703;-52
2024/01/24 10:45:58;;;;;;;11.85;2.47;;;15.90;67.50;;;;;;5153461;27;46239;-52
2024/01/24 10:48:25;;;;;;;13.57;2.92;;;15.90;67.30;;;;;;5152595;27;45381;-52
2024/01/24 10:50:53;;;;;;;11.88;2.67;;;15.90;67.20;;;;;;5153673;27;44650;-52
2024/01/24 10:53:22;;;;;;;11.50;2.80;;;15.90;67.00;;;;;;5153818;27;45519;-52
2024/01/24 10:55:51;;;;;;;13.10;2.78;;;15.90;67.10;;;;;;5153044;27;46424;-52
2024/01/24 10:58:19;;;;;;;10.23;3.35;;;15.90;67.80;;;;;;5151591;27;45405;-52
2024/01/24 11:00:47;;;;;;;9.60;2.47;;;15.90;66.70;;;;;;5152280;27;45178;-52
2024/01/24 11:03:14;;;;;;;11.20;3.40;;;15.90;66.60;;;;;;5156923;27;45180;-52
2024/01/24 11:05:46;;;;;;;13.15;3.17;;;15.80;66.30;;;;;;5153882;27;46199;-52
2024/01/24 11:08:20;;;;;;;10.13;2.20;;;15.90;66.40;;;;;;5150078;27;45088;-52
2024/01/24 11:10:49;;;;;;;14.63;3.33;;;15.90;66.70;;;;;;5153773;27;45264;-52
2024/01/24 11:13:18;;;;;;;12.35;2.83;;;15.90;66.50;;;;;;5152153;27;45102;-52
2024/01/24 11:15:48;;;;;;;10.23;2.65;;;15.80;66.40;;;;;;5153112;27;46340;-52
2024/01/24 11:18:22;;;;;;;13.48;3.22;;;15.90;66.50;;;;;;5154084;27;44644;-52
2024/01/24 11:20:52;;;;;;;10.02;2.30;;;15.80;66.20;;;;;;5152442;27;45173;-52
2024/01/24 11:23:44;;;;;;;9.75;2.58;;;15.90;66.30;;;;;;5154574;27;45229;-52
2024/01/24 11:26:11;;;;;;;11.43;3.42;;;15.90;66.40;;;;;;5153239;27;46663;-52
2024/01/24 11:28:38;;;;;;;14.20;2.90;;;15.90;66.20;;;;;;5151570;27;45184;-52
2024/01/24 11:31:07;;;;;;;10.75;2.67;;;15.90;66.30;;;;;;5153877;27;45323;-52
2024/01/24 11:33:34;;;;;;;13.27;2.92;;;15.90;66.00;;;;;;5153002;27;45445;-52
2024/01/24 11:36:03;;;;;;;8.10;2.28;;;15.90;66.10;;;;;;5150644;27;46190;-52
2024/01/24 11:38:34;;;;;;;11.48;3.08;;;15.90;65.30;;;;;;5150668;27;45386;-52
2024/01/24 11:41:03;;;;;;;11.38;3.00;;;15.90;65.50;;;;;;5152417;27;45245;-52
2024/01/24 11:43:31;;;;;;;11.98;2.40;;;15.90;65.70;;;;;;5154183;27;44850;-52
2024/01/24 11:46:02;;;;;;;11.10;2.97;;;15.90;65.80;;;;;;5151619;27;45430;-52
2024/01/24 11:48:31;;;;;;;9.45;2.55;;;15.90;65.80;;;;;;5145442;27;45292;-52
2024/01/24 11:50:58;;;;;;;13.02;3.15;;;15.90;65.90;;;;;;5154142;27;45317;-52
2024/01/24 11:53:26;;;;;;;15.50;2.72;;;15.90;65.70;;;;;;5151286;27;45389;-52
2024/01/24 11:55:55;;;;;;;15.63;2.90;;;15.90;65.80;;;;;;5151045;27;45549;-52
2024/01/24 11:58:25;;;;;;;15.45;3.25;;;15.90;66.30;;;;;;5148825;27;44643;-52
2024/01/24 12:00:52;;;;;;;9.35;2.40;;;15.80;65.90;;;;;;5152038;27;45110;-52
2024/01/24 12:03:21;;;;;;;12.95;2.28;;;15.90;65.90;;;;;;5151321;27;45319;-52
2024/01/24 12:05:49;;;;;;;11.55;2.97;;;15.80;65.90;;;;;;5151815;27;47329;-52
2024/01/24 12:08:17;;;;;;;11.05;3.22;;;15.80;65.90;;;;;;5157139;27;45073;-52
2024/01/24 12:10:44;;;;;;;9.50;2.85;;;15.80;66.10;;;;;;5148475;27;45228;-52
2024/01/24 12:13:11;;;;;;;11.18;3.00;;;15.90;66.30;;;;;;5144408;27;45269;-52
2024/01/24 12:15:39;;;;;;;12.40;3.10;;;16.00;66.00;;;;;;5154173;27;46568;-52
2024/01/24 12:18:09;;;;;;;11.75;3.03;;;16.00;65.90;;;;;;5150465;27;45770;-52
2024/01/24 12:20:36;;;;;;;10.07;2.50;;;16.00;65.30;;;;;;5152049;27;45133;-52
2024/01/24 12:23:06;;;;;;;11.63;3.00;;;16.10;65.30;;;;;;5150332;27;45221;-52
2024/01/24 12:25:33;;;;;;;10.18;3.15;;;16.00;65.00;;;;;;5149895;27;47064;-52
2024/01/24 12:28:01;;;;;;;10.57;2.83;;;16.00;64.70;;;;;;5151429;27;45208;-52
2024/01/24 12:30:32;;;;;;;10.65;2.80;;;16.00;64.40;;;;;;5150947;27;44791;-52
2024/01/24 12:32:59;;;;;;;12.50;2.85;;;16.00;64.50;;;;;;5149757;27;45199;-52
2024/01/24 12:35:26;;;;;;;9.60;3.03;;;16.00;64.50;;;;;;5152705;27;46537;-52
2024/01/24 12:37:53;;;;;;;10.88;3.28;;;16.00;64.60;;;;;;5150108;27;45177;-52
2024/01/24 12:40:22;;;;;;;13.05;2.97;;;16.00;64.60;;;;;;5149961;27;45262;-52
2024/01/24 12:42:49;;;;;;;12.35;3.00;;;15.90;64.50;;;;;;5154260;27;45222;-52
2024/01/24 12:45:16;;;;;;;12.18;3.17;;;15.90;64.50;;;;;;5154692;27;46409;-52